Terminal Aerodrome Forecast
Issued by NWS Blacksburg, VA

Home | Current Version | Previous Version | Text Only | Print | Product List | Glossary On
Versions: 1 2 3 4 5 6 7 8 9 10 11 12 13 14 15 16
000
FTUS41 KRNK 302320
TAFLYH
TAF
KLYH 302320Z 0100/0124 19009KT P6SM SCT250
     FM010600 19010KT P6SM FEW020 SCT025
     FM010900 19011KT P6SM BKN008 BKN020
     FM011900 19016G28KT P6SM VCSH OVC030
     FM012000 19015G30KT 5SM SHRA BR OVC030=

USA.gov is the U.S. government's official web portal to all federal, state and local government web resources and services.